^^
Datos históricos de la estación: Murcia-Puente Tocinos
Diario Informe para Julio 27, 2019 Unidades:  Ingés    Métrico   Ambas
Diario Semanal Mensual Anual
  Máxima: Mínima: Promedio:
Temperatura: 66.2 °F 46.9 °F 56.3 °F
Punto de rocio: 43.9 °F 29.7 °F 36.5 °F
Humedad: 75% 31% 50%
Velocidad viento: 19.7mph 2mph 7.7mph
Racha viento: 36mph - -
Viento- - OSO
Presión: 30 in 29.8 in -
Precipitación: 0 in    
 
 
Tabla de datos para Julio 27, 2019
Hora Temperatura Punto de rocio Presión Viento Velocidad viento Racha viento Humedad Intensidad lluvia(por hora) Nubes
00:04 51.4 °F 43.9 °F 30 in SSE 5.2 mph 10.4 mph 75% 0 in
00:09 51.3 °F 43.7 °F 30 in Sur 5.3 mph 10 mph 75% 0 in
00:14 51.3 °F 43.5 °F 30 in Sur 5.4 mph 8 mph 75% 0 in
00:19 51.3 °F 43.5 °F 30 in Sur 4.8 mph 7 mph 75% 0 in
00:24 51.3 °F 43.5 °F 30 in Sur 4.3 mph 8.5 mph 75% 0 in
00:29 51.3 °F 43.5 °F 30 in Sur 4.8 mph 9 mph 74.9% 0 in
00:34 51.3 °F 43.3 °F 30 in Sur 5.2 mph 8.5 mph 74% 0 in
00:39 51.3 °F 43.3 °F 29.9 in Sur 5.5 mph 9 mph 74% 0 in
00:44 51.3 °F 43.3 °F 29.9 in Sur 5.9 mph 9 mph 74% 0 in
00:49 51.3 °F 43.2 °F 29.9 in Sur 5.3 mph 7 mph 74% 0 in
00:54 51.1 °F 43.3 °F 29.9 in SSO 4.7 mph 7.4 mph 74.8% 0 in
00:59 51.1 °F 43.2 °F 29.9 in Sur 5 mph 8.5 mph 74.3% 0 in
01:04 51.1 °F 43.2 °F 29.9 in Sur 5.2 mph 9 mph 74% 0 in
01:09 51.1 °F 43.2 °F 29.9 in Sur 5.2 mph 9 mph 74% 0 in
01:14 50.9 °F 43 °F 29.9 in SSE 5.2 mph 8.1 mph 74% 0 in
01:19 50.7 °F 42.8 °F 29.9 in Sur 5.3 mph 9.2 mph 74% 0 in
01:24 50.5 °F 42.6 °F 29.9 in Sur 5.4 mph 9.2 mph 74% 0 in
01:29 50.5 °F 42.6 °F 29.9 in SSO 5.7 mph 9 mph 74% 0 in
01:34 50.5 °F 42.6 °F 29.9 in SO 5.9 mph 7 mph 74% 0 in
01:39 50.5 °F 42.6 °F 29.9 in OSO 4.9 mph 6 mph 74.1% 0 in
01:44 50.5 °F 42.6 °F 29.9 in SO 4.3 mph 6.2 mph 74% 0 in
01:49 50.5 °F 42.4 °F 29.9 in SO 4.1 mph 6 mph 74% 0 in
01:54 50.4 °F 42.1 °F 29.9 in SO 4 mph 6 mph 73.2% 0 in
01:59 50.5 °F 42.3 °F 29.9 in SO 3.4 mph 6.4 mph 73% 0 in
02:04 50.5 °F 42.3 °F 29.9 in SSO 3.1 mph 7 mph 73% 0 in
02:09 50.7 °F 42.3 °F 29.9 in SSO 3.9 mph 7 mph 72.9% 0 in
02:14 50.7 °F 42.1 °F 29.9 in SO 4.3 mph 8.1 mph 72% 0 in
02:19 50.7 °F 41.9 °F 29.9 in SO 4.5 mph 8 mph 72% 0 in
02:24 50.5 °F 42.1 °F 29.9 in SO 4.7 mph 10.4 mph 72.6% 0 in
02:29 50.5 °F 41.7 °F 29.9 in SSO 5.5 mph 10.4 mph 72% 0 in
02:34 50.4 °F 41.7 °F 29.9 in SSO 5.9 mph 9 mph 72% 0 in
02:39 50.4 °F 41.7 °F 29.9 in Sur 5.9 mph 9 mph 72% 0 in
02:44 50.5 °F 41.7 °F 29.9 in Sur 5.9 mph 7 mph 72% 0 in
02:49 50.4 °F 41.7 °F 29.9 in SSO 4.5 mph 6 mph 72% 0 in
02:54 50.4 °F 41.7 °F 29.9 in Sur 3.6 mph 6 mph 72% 0 in
02:59 50.2 °F 41.5 °F 29.9 in SSO 2.5 mph 7.4 mph 72% 0 in
03:04 50 °F 41.4 °F 29.9 in SO 2 mph 8.1 mph 72.3% 0 in
03:09 49.8 °F 41.2 °F 29.9 in SO 4 mph 9.7 mph 72.2% 0 in
03:14 49.6 °F 41.2 °F 29.9 in SSO 5.2 mph 10 mph 72.7% 0 in
03:19 49.3 °F 41 °F 29.9 in SSO 5.2 mph 9.7 mph 73% 0 in
03:24 48.9 °F 40.8 °F 29.9 in SSO 5.2 mph 10 mph 73.7% 0 in
03:29 48.7 °F 40.8 °F 29.9 in SSO 5.3 mph 8.1 mph 74% 0 in
03:34 48.7 °F 40.8 °F 29.9 in Sur 5.4 mph 8 mph 74% 0 in
03:39 48.7 °F 40.8 °F 29.9 in SSO 5.3 mph 8.5 mph 74% 0 in
03:44 48.7 °F 40.8 °F 29.9 in SSO 5.2 mph 9 mph 73.8% 0 in
03:49 48.7 °F 40.6 °F 29.9 in SO 5.2 mph 8 mph 73.1% 0 in
03:54 48.9 °F 40.5 °F 29.9 in OSO 5.2 mph 6 mph 72.4% 0 in
03:59 48.9 °F 40.3 °F 29.9 in OSO 4.3 mph 6 mph 72% 0 in
04:04 48.9 °F 40.3 °F 29.9 in OSO 4 mph 6.9 mph 72% 0 in
04:09 48.9 °F 40.3 °F 29.9 in SO 3.5 mph 7 mph 72% 0 in
04:14 48.9 °F 40.1 °F 29.9 in SO 3.1 mph 6.2 mph 71.4% 0 in
04:19 49.1 °F 39.9 °F 29.9 in SSO 3.7 mph 7.6 mph 70.7% 0 in
04:24 49.3 °F 39.6 °F 29.9 in SO 4 mph 8.1 mph 69.4% 0 in
04:29 49.3 °F 39.6 °F 29.9 in SO 4.8 mph 8.1 mph 69% 0 in
04:34 49.5 °F 39.2 °F 29.9 in SO 5.2 mph 8.5 mph 67.7% 0 in
04:39 49.6 °F 38.7 °F 29.9 in SO 5.2 mph 9.2 mph 66% 0 in
04:44 49.8 °F 38.3 °F 29.9 in SO 5.2 mph 9.7 mph 64.7% 0 in
04:49 50.2 °F 38.3 °F 29.9 in SSO 5.3 mph 10 mph 63.6% 0 in
04:54 50.2 °F 38.1 °F 29.9 in SSO 5.4 mph 9 mph 63% 0 in
04:59 50.2 °F 38.1 °F 29.9 in Sur 4.7 mph 7 mph 63% 0 in
05:04 50.2 °F 38.1 °F 29.9 in SO 4.3 mph 6 mph 63% 0 in
05:09 50.2 °F 37.8 °F 29.9 in SO 3.5 mph 6 mph 62.3% 0 in
05:14 50 °F 37.4 °F 29.9 in SSO 3.1 mph 7.6 mph 61.9% 0 in
05:19 49.8 °F 37.2 °F 29.9 in SO 3.9 mph 8.1 mph 61.9% 0 in
05:24 49.8 °F 37.2 °F 29.9 in SSO 4.3 mph 10.4 mph 62% 0 in
05:29 49.8 °F 37 °F 29.9 in SO 4.9 mph 10 mph 61.3% 0 in
05:34 49.8 °F 37 °F 29.9 in SSO 5.2 mph 9.7 mph 61% 0 in
05:39 50.4 °F 37.2 °F 29.9 in SO 5.2 mph 10 mph 60.6% 0 in
05:44 50 °F 37.2 °F 29.9 in SO 5.2 mph 8.1 mph 61% 0 in
05:49 49.8 °F 36.9 °F 29.9 in SO 4.5 mph 8.1 mph 60.9% 0 in
05:54 50.2 °F 36.9 °F 29.9 in SSO 4 mph 8 mph 60% 0 in
05:59 50.4 °F 36.7 °F 29.9 in SSO 4.5 mph 8.5 mph 59.2% 0 in
06:04 50.4 °F 36.7 °F 29.9 in Sur 4.7 mph 9.2 mph 59% 0 in
06:09 50.4 °F 36.3 °F 29.8 in SO 5.1 mph 9 mph 58.2% 0 in
06:14 50.5 °F 36 °F 29.8 in Sur 5.4 mph 8 mph 57.4% 0 in
06:19 50.5 °F 36 °F 29.8 in Sur 5.3 mph 8.1 mph 57.3% 0 in
06:24 50.4 °F 36 °F 29.8 in SSO 5.2 mph 7.4 mph 57.8% 0 in
06:29 50.2 °F 36 °F 29.8 in SO 4.9 mph 7 mph 58% 0 in
06:34 49.8 °F 35.6 °F 29.8 in SO 4.7 mph 8.1 mph 58% 0 in
06:39 49.8 °F 35.6 °F 29.8 in OSO 4 mph 8 mph 58% 0 in
06:44 49.8 °F 35.6 °F 29.8 in SO 3.6 mph 6 mph 58% 0 in
06:49 49.6 °F 35.4 °F 29.8 in SO 3.6 mph 9.2 mph 58.1% 0 in
06:54 49.5 °F 35.2 °F 29.8 in SSO 3.6 mph 9 mph 58% 0 in
06:59 49.5 °F 35.2 °F 29.8 in SO 3.6 mph 6.9 mph 58.2% 0 in
07:04 49.1 °F 35.4 °F 29.8 in OSO 3.6 mph 7 mph 59% 0 in
07:09 49.1 °F 35.1 °F 29.8 in SSO 4 mph 7 mph 58.4% 0 in
07:14 49.5 °F 34.9 °F 29.8 in SO 4.3 mph 7 mph 57.4% 0 in
07:19 49.5 °F 34.9 °F 29.8 in SO 4.3 mph 7.6 mph 57% 0 in
07:24 49.6 °F 34.9 °F 29.8 in SO 4.3 mph 8.1 mph 56.9% 0 in
07:29 49.6 °F 34.7 °F 29.8 in OSO 4.1 mph 8 mph 56.4% 0 in
07:34 49.5 °F 34.7 °F 29.8 in OSO 4 mph 5.2 mph 57% 0 in
07:39 49.1 °F 34.9 °F 29.8 in OSO 3.4 mph 5 mph 57.8% 0 in
07:44 48.6 °F 34.7 °F 29.8 in ONO 2.9 mph 5.9 mph 58.6% 0 in
07:49 47.8 °F 34.7 °F 29.8 in Oeste 3 mph 6 mph 60.1% 0 in
07:54 47.3 °F 34.7 °F 29.8 in OSO 3.1 mph 5 mph 61.3% 0 in
07:59 46.9 °F 34.7 °F 29.8 in OSO 3 mph 5 mph 62% 0 in
08:04 46.9 °F 34.7 °F 29.8 in SSO 2.9 mph 6.2 mph 62% 0 in
08:09 47.3 °F 34.5 °F 29.8 in SSO 3 mph 6 mph 61.1% 0 in
08:14 47.7 °F 34.5 °F 29.8 in Sur 3.1 mph 6.4 mph 60.2% 0 in
08:19 47.8 °F 34.3 °F 29.8 in SSO 3.6 mph 6 mph 59.5% 0 in
08:24 48 °F 34.3 °F 29.8 in SO 4 mph 6 mph 59% 0 in
08:29 48 °F 34.3 °F 29.8 in SO 3.5 mph 6 mph 59% 0 in
08:34 48 °F 34.3 °F 29.9 in SSO 3.1 mph 6.4 mph 59% 0 in
08:39 48.2 °F 34.5 °F 29.9 in SSO 3.9 mph 7.6 mph 59% 0 in
08:44 48.4 °F 34.3 °F 29.9 in SSO 4.3 mph 8.1 mph 58.2% 0 in
08:49 48.7 °F 34.5 °F 29.9 in SO 4.8 mph 8 mph 58% 0 in
08:54 48.7 °F 34.5 °F 29.8 in SSO 5.2 mph 7.6 mph 57.7% 0 in
08:59 48.9 °F 34.9 °F 29.8 in SSO 5.2 mph 8.5 mph 58% 0 in
09:04 48.9 °F 35.1 °F 29.8 in Sur 5.2 mph 9 mph 58.5% 0 in
09:09 48.7 °F 35.1 °F 29.8 in Sur 4.7 mph 6 mph 59% 0 in
09:14 48.7 °F 34.9 °F 29.8 in SO 4.3 mph 6 mph 58.3% 0 in
09:19 49.3 °F 35.1 °F 29.9 in OSO 3.4 mph 6 mph 58% 0 in
09:24 49.5 °F 35.2 °F 29.9 in Oeste 2.9 mph 8.1 mph 58.1% 0 in
09:29 49.1 °F 35.2 °F 29.9 in OSO 3.5 mph 8.1 mph 59% 0 in
09:34 48.7 °F 35.4 °F 29.9 in OSO 4 mph 9.7 mph 59.8% 0 in
09:39 49.1 °F 35.4 °F 29.8 in Oeste 4.2 mph 10 mph 59.2% 0 in
09:44 49.5 °F 35.8 °F 29.8 in ONO 4.3 mph 8.5 mph 58.9% 0 in
09:49 50.2 °F 35.6 °F 29.9 in Oeste 3.9 mph 9 mph 56.9% 0 in
09:54 51.4 °F 35.4 °F 29.9 in OSO 3.6 mph 6.2 mph 54.4% 0 in
09:59 52.5 °F 36 °F 29.9 in SSO 3.3 mph 6.2 mph 53.1% 0 in
10:04 52.9 °F 37.2 °F 29.9 in SSE 3.1 mph 8.5 mph 55.2% 0 in
10:09 52.3 °F 37.2 °F 29.9 in SSE 3.7 mph 9 mph 56.2% 0 in
10:14 52.2 °F 37.6 °F 29.9 in SSE 4 mph 8.7 mph 57.4% 0 in
10:19 52.2 °F 37.9 °F 29.9 in Sur 4.5 mph 9.2 mph 58% 0 in
10:24 53.2 °F 38.5 °F 29.9 in SO 4.7 mph 9.7 mph 57.1% 0 in
10:29 55.2 °F 39 °F 29.9 in OSO 5 mph 10 mph 54.5% 0 in
10:34 57 °F 39.4 °F 29.9 in OSO 5.2 mph 12.3 mph 51.8% 0 in
10:39 58.1 °F 39.6 °F 29.9 in Oeste 5.2 mph 15.2 mph 50.2% 0 in
10:44 59.2 °F 40.5 °F 29.9 in ONO 5.2 mph 15 mph 49.8% 0 in
10:49 59.7 °F 40.5 °F 29.9 in ONO 5.6 mph 13 mph 49% 0 in
10:54 60.4 °F 40.6 °F 29.9 in ONO 5.9 mph 13.8 mph 48.2% 0 in
10:59 60.8 °F 41 °F 29.9 in NO 5.5 mph 14 mph 48% 0 in
11:04 61.2 °F 40.8 °F 29.9 in ONO 5.2 mph 10.7 mph 47% 0 in
11:09 61.5 °F 41 °F 29.9 in Oeste 4.6 mph 13 mph 46.6% 0 in
11:14 61.9 °F 40.5 °F 29.9 in Oeste 4.3 mph 16.8 mph 45.2% 0 in
11:19 62.1 °F 40.5 °F 29.9 in Oeste 7 mph 17 mph 45% 0 in
11:24 62.2 °F 40.6 °F 29.9 in SSO 8.5 mph 15 mph 45% 0 in
11:29 62.2 °F 40.5 °F 29.9 in Oeste 5.9 mph 6.2 mph 44.9% 0 in
11:34 62.2 °F 40.6 °F 29.9 in SO 4.3 mph 6 mph 45% 0 in
11:39 62.4 °F 40.6 °F 29.9 in SSO 3.9 mph 8.5 mph 44.7% 0 in
11:44 62.4 °F 40.6 °F 29.9 in SO 3.6 mph 9 mph 44.8% 0 in
11:49 62.4 °F 40.3 °F 29.9 in SO 4.7 mph 10.4 mph 44% 0 in
11:54 62.8 °F 40.3 °F 29.9 in SO 5.4 mph 10 mph 43.6% 0 in
11:59 63.1 °F 39.9 °F 29.9 in OSO 5.8 mph 10 mph 42.5% 0 in
12:04 63.7 °F 39.7 °F 29.9 in Oeste 6.2 mph 24.2 mph 41.3% 0 in
12:09 64.6 °F 39 °F 29.9 in ONO 7.3 mph 24 mph 38.9% 0 in
12:14 65.1 °F 38.8 °F 29.9 in ONO 8.1 mph 24.6 mph 38% 0 in
12:19 65.1 °F 38.7 °F 29.9 in ONO 11.7 mph 25.3 mph 37.7% 0 in
12:24 65.1 °F 38.1 °F 29.9 in Oeste 14 mph 26.8 mph 36.8% 0 in
12:29 65.1 °F 37.8 °F 29.9 in ONO 15.1 mph 31.3 mph 36.3% 0 in
12:34 65.1 °F 37.6 °F 29.9 in NO 15.9 mph 31 mph 36.2% 0 in
12:39 65.1 °F 37.4 °F 29.9 in NO 15 mph 28 mph 35.9% 0 in
12:44 65.1 °F 37.4 °F 29.9 in ONO 14.5 mph 26 mph 36% 0 in
12:49 65.3 °F 37.6 °F 29.9 in ONO 14.6 mph 27.5 mph 35.9% 0 in
12:54 65.5 °F 37.4 °F 29.9 in ONO 14.7 mph 28 mph 35.5% 0 in
12:59 65.7 °F 37.9 °F 29.9 in NO 14.2 mph 26 mph 36% 0 in
13:04 65.8 °F 37.6 °F 29.9 in ONO 14 mph 24 mph 35.2% 0 in
13:09 66.2 °F 37.8 °F 29.8 in NO 13.7 mph 28.8 mph 35% 0 in
14:14 64.9 °F 37.9 °F 29.8 in NO 12.5 mph 28.8 mph 37% 0 in
14:19 64.9 °F 37.6 °F 29.8 in ONO 15.3 mph 32.7 mph 36.4% 0 in
14:24 65.3 °F 37.9 °F 29.8 in ONO 17 mph 33 mph 36.5% 0 in
14:29 65.3 °F 37.8 °F 29.8 in ONO 16.3 mph 29.9 mph 36.1% 0 in
14:34 65.3 °F 37.9 °F 29.8 in NO 15.9 mph 30 mph 36.7% 0 in
14:39 65.5 °F 37.9 °F 29.8 in ONO 15.7 mph 27.6 mph 36% 0 in
14:44 65.7 °F 37.9 °F 29.8 in ONO 15.6 mph 28 mph 36% 0 in
14:49 65.7 °F 37.9 °F 29.8 in ONO 15 mph 22 mph 36% 0 in
14:54 65.7 °F 37.9 °F 29.8 in ONO 14.5 mph 27.9 mph 36% 0 in
14:59 65.5 °F 37.8 °F 29.8 in ONO 15 mph 31.1 mph 36% 0 in
15:04 65.5 °F 38.3 °F 29.8 in ONO 15.2 mph 31 mph 36.6% 0 in
15:09 65.3 °F 38.1 °F 29.8 in NO 16.2 mph 29 mph 36.7% 0 in
15:14 65.3 °F 38.3 °F 29.8 in ONO 16.8 mph 26 mph 37% 0 in
15:19 65.5 °F 38.5 °F 29.8 in ONO 14.2 mph 24.6 mph 37% 0 in
15:24 64.9 °F 37.4 °F 29.8 in NO 12.5 mph 32.2 mph 36% 0 in
15:29 64.8 °F 37.8 °F 29.8 in NO 15.5 mph 32 mph 36.9% 0 in
15:34 64.6 °F 37 °F 29.8 in NO 17.5 mph 28 mph 36.2% 0 in
15:39 64.6 °F 36.9 °F 29.8 in NO 15.8 mph 27 mph 36% 0 in
15:44 64.6 °F 37 °F 29.8 in ONO 14.7 mph 25.3 mph 36% 0 in
15:49 64.2 °F 36.7 °F 29.8 in ONO 15.7 mph 33.4 mph 36% 0 in
15:54 64 °F 36.5 °F 29.8 in ONO 16.3 mph 33.4 mph 36% 0 in
15:59 63.9 °F 36.7 °F 29.8 in ONO 18.1 mph 31.1 mph 36.4% 0 in
16:04 63.9 °F 36.3 °F 29.8 in ONO 19 mph 36 mph 36% 0 in
16:09 63.7 °F 36.5 °F 29.8 in Oeste 17.8 mph 36 mph 36.4% 0 in
16:14 63.7 °F 36.9 °F 29.8 in Oeste 17 mph 28 mph 37% 0 in
16:19 63.7 °F 36.9 °F 29.8 in Oeste 15.5 mph 27.6 mph 37% 0 in
16:24 63.7 °F 36.9 °F 29.8 in Oeste 14.5 mph 28 mph 37% 0 in
16:29 63.7 °F 36.7 °F 29.8 in Oeste 13.6 mph 25.6 mph 36.6% 0 in
16:34 63.7 °F 36.5 °F 29.8 in Oeste 13 mph 26 mph 36.4% 0 in
16:39 63.9 °F 37 °F 29.8 in ONO 12.3 mph 25 mph 37% 0 in
16:44 63.9 °F 37 °F 29.8 in Oeste 11.8 mph 25.6 mph 37% 0 in
16:49 63.7 °F 36.9 °F 29.9 in Oeste 11.4 mph 26 mph 37% 0 in
16:54 63.7 °F 36.9 °F 29.9 in Oeste 11.2 mph 17.3 mph 37% 0 in
16:59 63.9 °F 37 °F 29.9 in Oeste 8.9 mph 17.3 mph 37% 0 in
17:04 63.7 °F 37 °F 29.9 in Oeste 7.6 mph 25.3 mph 37% 0 in
17:09 63.7 °F 36.9 °F 29.9 in Oeste 9.4 mph 25.3 mph 37% 0 in
17:14 63.3 °F 36.5 °F 29.9 in Oeste 10.7 mph 25.3 mph 36.9% 0 in
17:19 63.3 °F 36.3 °F 29.9 in Oeste 12.4 mph 32.2 mph 36.7% 0 in
17:24 63.3 °F 35.4 °F 29.9 in ONO 13.7 mph 32 mph 35.3% 0 in
17:29 63.1 °F 35.1 °F 29.9 in ONO 13.6 mph 27 mph 35% 0 in
17:34 63 °F 35.4 °F 29.9 in ONO 13.5 mph 20 mph 35.7% 0 in
17:39 63.1 °F 35.4 °F 29.9 in Oeste 10.3 mph 20.7 mph 35.7% 0 in
17:44 63.1 °F 35.1 °F 29.9 in Oeste 8.1 mph 21 mph 35% 0 in
17:49 63.1 °F 35.1 °F 29.9 in Oeste 9.1 mph 17 mph 35% 0 in
17:54 63.1 °F 35.1 °F 29.9 in OSO 9.7 mph 14 mph 35.1% 0 in
17:59 63.1 °F 35.6 °F 29.9 in Oeste 7.3 mph 18.4 mph 35.8% 0 in
18:04 63 °F 35.6 °F 29.9 in Oeste 5.9 mph 18.4 mph 36% 0 in
18:09 62.6 °F 35.2 °F 29.9 in Oeste 7.9 mph 18 mph 36% 0 in
18:14 62.2 °F 35.1 °F 29.9 in OSO 9.2 mph 21.9 mph 36% 0 in
18:19 62.2 °F 34.9 °F 29.9 in Oeste 9.8 mph 26.5 mph 36% 0 in
18:24 62.1 °F 34.7 °F 29.9 in Oeste 10.2 mph 26.5 mph 35.8% 0 in
18:29 62.1 °F 34 °F 29.9 in ONO 12.7 mph 33.7 mph 34.8% 0 in
18:34 62.1 °F 33.4 °F 29.9 in ONO 14.5 mph 34.4 mph 34% 0 in
18:39 62.1 °F 33.4 °F 29.9 in ONO 17.6 mph 35 mph 34.1% 0 in
18:44 61.9 °F 33.3 °F 29.9 in ONO 19.7 mph 26 mph 34.1% 0 in
18:49 61.9 °F 33.1 °F 29.9 in ONO 16.3 mph 23 mph 34% 0 in
18:54 61.7 °F 33.1 °F 29.9 in ONO 14 mph 23 mph 34% 0 in
18:59 61.5 °F 32.9 °F 29.9 in ONO 13.7 mph 23 mph 34% 0 in
19:04 61.3 °F 32.7 °F 29.9 in ONO 13.5 mph 21 mph 34.1% 0 in
19:09 61.3 °F 32.7 °F 29.9 in ONO 12.5 mph 21 mph 34% 0 in
19:14 61.2 °F 32.2 °F 29.9 in ONO 11.8 mph 20.1 mph 33.5% 0 in
19:19 61.2 °F 31.5 °F 29.9 in NO 11.8 mph 21 mph 32.7% 0 in
19:24 61 °F 30.9 °F 29.9 in ONO 11.8 mph 21.9 mph 32% 0 in
19:29 61 °F 30.9 °F 29.9 in ONO 12.2 mph 22 mph 32% 0 in
19:34 61 °F 30.9 °F 29.9 in ONO 12.5 mph 21.9 mph 32% 0 in
19:39 61 °F 30.9 °F 29.9 in ONO 11.9 mph 22 mph 32% 0 in
19:44 60.6 °F 30.6 °F 29.9 in ONO 11.4 mph 19.6 mph 32% 0 in
19:49 60.8 °F 30.4 °F 29.9 in ONO 11.3 mph 20 mph 31.7% 0 in
19:54 60.8 °F 30 °F 29.9 in ONO 11.2 mph 19 mph 31% 0 in
19:59 60.6 °F 30.4 °F 29.9 in ONO 10.9 mph 21.3 mph 31.8% 0 in
20:04 60.6 °F 30.6 °F 29.9 in ONO 10.7 mph 21 mph 32% 0 in
20:09 60.4 °F 30.4 °F 29.9 in ONO 10.7 mph 19 mph 32% 0 in
20:14 60.3 °F 30.4 °F 29.9 in ONO 10.7 mph 19 mph 32% 0 in
20:19 60.3 °F 30.4 °F 29.9 in ONO 10.1 mph 17 mph 32% 0 in
20:24 60.3 °F 30.4 °F 29.9 in ONO 9.7 mph 16.8 mph 32% 0 in
20:29 60.3 °F 30.4 °F 29.9 in ONO 9.4 mph 17.3 mph 32% 0 in
20:34 60.3 °F 30.4 °F 29.9 in ONO 9.2 mph 17 mph 32% 0 in
20:39 60.3 °F 30.4 °F 29.9 in ONO 9.2 mph 17.3 mph 32% 0 in
20:44 60.3 °F 30.2 °F 29.9 in ONO 9.2 mph 17 mph 32% 0 in
20:49 60.1 °F 30.2 °F 29.9 in ONO 9.2 mph 16 mph 32.3% 0 in
20:54 59.7 °F 30.6 °F 29.9 in ONO 9.2 mph 13 mph 33% 0 in
20:59 59.5 °F 30.4 °F 29.9 in ONO 7.4 mph 12 mph 33% 0 in
21:04 59.4 °F 30.2 °F 29.9 in ONO 6.4 mph 12 mph 33% 0 in
21:09 59.2 °F 30.4 °F 29.9 in ONO 7.5 mph 15.2 mph 33.5% 0 in
21:14 59.2 °F 30.7 °F 29.9 in ONO 8.1 mph 17 mph 33.9% 0 in
21:19 59.4 °F 30.2 °F 30 in ONO 9.3 mph 21.9 mph 33.1% 0 in
21:24 59.4 °F 30.2 °F 30 in ONO 10.2 mph 22 mph 33% 0 in
21:29 59.4 °F 30.2 °F 30 in ONO 9.6 mph 15.2 mph 33% 0 in
21:34 59.4 °F 30.2 °F 30 in ONO 9.2 mph 15 mph 33.1% 0 in
21:39 59.2 °F 30.7 °F 30 in ONO 8.6 mph 14 mph 33.8% 0 in
21:44 59.2 °F 30.7 °F 30 in ONO 8.1 mph 14 mph 33.9% 0 in
21:49 59.2 °F 30.7 °F 30 in ONO 7.7 mph 12 mph 34% 0 in
21:54 58.8 °F 30.6 °F 30 in ONO 7.4 mph 14.5 mph 34% 0 in
21:59 58.8 °F 30.6 °F 30 in ONO 7.1 mph 15 mph 34% 0 in
22:04 58.8 °F 30.6 °F 30 in ONO 6.9 mph 14 mph 34% 0 in
22:09 58.8 °F 30.6 °F 30 in Oeste 6.6 mph 12 mph 34% 0 in
22:14 58.8 °F 30.6 °F 30 in Oeste 6.4 mph 12.7 mph 34% 0 in
22:19 58.6 °F 30.4 °F 30 in ONO 5.7 mph 13 mph 34% 0 in
22:24 58.6 °F 30.2 °F 30 in ONO 5.2 mph 8.5 mph 34% 0 in
22:29 58.5 °F 30.2 °F 30 in ONO 4.7 mph 9.2 mph 34% 0 in
22:34 58.3 °F 30.4 °F 30 in ONO 4.3 mph 12.3 mph 34.6% 0 in
22:39 58.1 °F 30.6 °F 30 in NO 5.6 mph 13 mph 35% 0 in
22:44 57.7 °F 30.2 °F 30 in NO 6.4 mph 10.4 mph 35% 0 in
22:49 57.6 °F 30 °F 30 in ONO 6.3 mph 11.5 mph 35% 0 in
22:54 57.4 °F 30.4 °F 30 in ONO 6.2 mph 12 mph 35.6% 0 in
22:59 57.4 °F 30.6 °F 30 in ONO 6 mph 12 mph 36% 0 in
23:04 57.2 °F 30.6 °F 30 in ONO 5.9 mph 9.2 mph 36% 0 in
23:09 57.4 °F 30.6 °F 30 in ONO 5.6 mph 9.7 mph 36% 0 in
23:14 57.4 °F 30.6 °F 30 in Oeste 5.4 mph 11.5 mph 36% 0 in
23:19 57.4 °F 30.4 °F 30 in ONO 6.3 mph 13.7 mph 35.7% 0 in
23:24 57.6 °F 30 °F 30 in ONO 6.9 mph 15 mph 35% 0 in
23:29 57.6 °F 30 °F 30 in Oeste 8.5 mph 17.3 mph 35% 0 in
23:34 57.6 °F 30 °F 30 in ONO 9.7 mph 17 mph 35% 0 in
23:39 57.4 °F 30 °F 30 in ONO 9.1 mph 13 mph 35% 0 in
23:44 57.2 °F 29.8 °F 30 in ONO 8.7 mph 13 mph 35.2% 0 in
23:49 57 °F 30 °F 30 in ONO 7.4 mph 11.5 mph 35.7% 0 in
23:54 57 °F 29.7 °F 30 in ONO 6.4 mph 13.7 mph 35.1% 0 in
23:59 57.2 °F 29.8 °F 30 in ONO 7.5 mph 14 mph 35% 0 in
Murcia-Puente Tocinos, Espa?a
Compliments of Weather Underground - 3 mb

La estación de MeteoMurcia.com, publica sus datos en los siguientes proyectos:

Weather Underground PWS IMURCIAP2 Meteoclimatic www.awekas.at

W3Counter
Web Analytics